Lakewood, New York
Current Conditions -  °F | °C
As of 7:15 AM on Monday 24 Nov 2014 (Local Time) from KJHW Reporting Station
Overcast Overcast  
Wind Chill: 54°   Ceiling: 2100
Heat Index: 54°   Visibility: 10mi
Dew Point: 50°   Wind: 14mph
Humidity: 88%   Direction: 190°S
Pressure: 29.38"   Gusts: 24mph
Location:  42.1°N, 79.33°W
Report Text: KJHW 241215Z AUTO 19012G21KT 10SM BKN021 OVC029 12/10 A2938 RMK AO1
Loading
Personal Weather Stations






























Interactive Weather Map New forecast layout! Learn more

10-Day Weather Forecast

Advertisements
Track Severe Weather on mobile